Hammond, Illinois
Current Conditions -  °F | °C
As of 12:54 PM on Saturday 25 Oct 2014 (Local Time) from KDEC Reporting Station
Clear Clear  
Wind Chill: 75°   Ceiling: Unl
Heat Index: 75°   Visibility: 10mi
Dew Point: 55°   Wind: 8mph
Humidity: 50%   Direction: 280°W
Pressure: 30.01"   Gusts: NA
Location:  39.8°N, 88.59°W
Report Text: KDEC 251754Z 28007KT 10SM CLR 24/13 A3001 RMK AO2 SLP157 T02390128 10239 20133 58004
Loading
Personal Weather Stations






























Interactive Weather Map
Tropical Storm Tracking
New forecast layout! Learn more

10-Day Weather Forecast

Advertisements
Track Severe Weather on mobile